Erin, Tennessee
Current Conditions -  °F | °C
As of 2:52 PM on Thursday 20 Nov 2014 (Local Time) from KCKV Reporting Station
Clear Clear  
Wind Chill: 42°   Ceiling: Unl
Heat Index: 45°   Visibility: 10mi
Dew Point: 19°   Wind: 6mph
Humidity: 36%   Direction: 280°W
Pressure: 30.21"   Gusts: NA
Location:  36.32°N, 87.69°W
Report Text: KCKV 202052Z AUTO 28005KT 10SM CLR 07/M07 A3021 RMK AO2 SLP232 T00721072 56012
Loading
Personal Weather Stations






























Interactive Weather Map New forecast layout! Learn more

10-Day Weather Forecast

Advertisements
Track Severe Weather on mobile